Time;durP1;ratioP1;P1;durP2;ratioP2;P2;SDS_P1;SDS_P2;PMS_P1;PMS_P2;Temp;Humidity;BMP_temperature;BMP_pressure;BME280_temperature;BME280_humidity;BME280_pressure;Samples;Min_cycle;Max_cycle;Signal;HPM_P1;HPM_P2
2021/07/23 00:01:32;;;;;;;21.83;12.35;;;;;;;24.56;55.97;100960.50;5032278;28;20168;-90
2021/07/23 00:03:57;;;;;;;19.20;11.45;;;;;;;24.52;56.72;100949.28;5031818;28;20388;-89
2021/07/23 00:06:23;;;;;;;19.98;11.57;;;;;;;24.54;56.72;100958.00;5030847;28;20025;-89
2021/07/23 00:08:48;;;;;;;15.88;10.23;;;;;;;24.58;56.98;100953.09;5032066;28;20032;-89
2021/07/23 00:11:14;;;;;;;19.23;10.20;;;;;;;24.50;56.93;100961.19;5032172;28;20112;-89
2021/07/23 00:13:39;;;;;;;13.90;9.73;;;;;;;24.42;56.85;100954.06;5031901;28;20472;-88
2021/07/23 00:16:04;;;;;;;15.70;9.73;;;;;;;24.45;57.44;100956.41;5031917;28;20543;-89
2021/07/23 00:18:30;;;;;;;12.93;8.95;;;;;;;24.61;57.24;100951.91;5031625;28;20033;-89
2021/07/23 00:20:55;;;;;;;18.02;9.73;;;;;;;24.52;57.12;100949.28;5031943;28;20026;-89
2021/07/23 00:23:20;;;;;;;12.13;9.32;;;;;;;24.40;58.08;100947.22;5031853;28;20028;-90
2021/07/23 00:25:46;;;;;;;10.55;8.63;;;;;;;24.34;57.78;100962.19;5047216;28;20037;-90
2021/07/23 00:28:12;;;;;;;15.00;9.93;;;;;;;24.29;57.89;100953.84;5032091;28;20038;-90
2021/07/23 00:30:37;;;;;;;11.77;9.38;;;;;;;24.31;56.86;100957.19;5031790;28;20078;-89
2021/07/23 00:33:03;;;;;;;12.43;8.40;;;;;;;24.26;56.68;100954.22;5031283;28;20116;-89
2021/07/23 00:35:28;;;;;;;12.15;9.55;;;;;;;24.30;56.33;100955.50;5031466;28;20075;-89
2021/07/23 00:37:57;;;;;;;10.75;8.30;;;;;;;24.51;55.64;100942.28;5031507;28;20049;-89
2021/07/23 00:40:24;;;;;;;13.68;9.35;;;;;;;24.43;56.39;100944.19;5032003;28;20079;-89
2021/07/23 00:42:49;;;;;;;10.90;8.98;;;;;;;24.48;57.27;100950.63;5031682;28;20037;-90
2021/07/23 00:45:15;;;;;;;14.18;9.10;;;;;;;24.51;56.70;100947.63;5031858;28;20041;-89
2021/07/23 00:47:45;;;;;;;10.98;8.57;;;;;;;24.55;56.89;100948.13;5031439;28;20029;-89
2021/07/23 00:50:11;;;;;;;15.05;9.20;;;;;;;24.51;56.44;100944.94;5031425;28;20057;-89
2021/07/23 00:52:37;;;;;;;11.88;8.50;;;;;;;24.52;56.91;100943.91;5034895;28;20136;-89
2021/07/23 00:55:03;;;;;;;12.75;9.35;;;;;;;24.51;57.16;100934.22;5035522;28;20387;-89
2021/07/23 00:57:29;;;;;;;9.70;8.23;;;;;;;24.48;57.15;100926.47;5035693;28;20036;-89
2021/07/23 00:59:55;;;;;;;11.75;8.10;;;;;;;24.48;57.08;100937.22;5035610;28;20108;-90
2021/07/23 01:02:22;;;;;;;8.98;8.07;;;;;;;24.44;56.65;100925.19;5035605;28;20080;-89
2021/07/23 01:04:49;;;;;;;10.93;8.45;;;;;;;24.42;56.42;100926.38;5035429;28;20080;-89
2021/07/23 01:07:14;;;;;;;10.50;8.65;;;;;;;24.42;56.45;100929.06;5035255;28;20476;-89
2021/07/23 01:09:40;;;;;;;11.90;7.95;;;;;;;24.22;56.59;100926.06;5035371;28;20037;-89
2021/07/23 01:12:08;;;;;;;16.35;8.18;;;;;;;24.04;56.45;100921.84;5035251;28;20021;-89
2021/07/23 01:14:34;;;;;;;14.32;8.00;;;;;;;24.16;56.17;100924.94;5035194;28;20124;-89
2021/07/23 01:17:00;;;;;;;10.80;7.63;;;;;;;24.26;56.48;100913.97;5034833;28;20113;-89
2021/07/23 01:19:34;;;;;;;11.85;8.05;;;;;;;24.29;56.25;100910.91;5035027;28;20384;-89
2021/07/23 01:22:03;;;;;;;10.35;8.20;;;;;;;24.18;56.03;100911.34;5035148;28;20036;-89
2021/07/23 01:24:28;;;;;;;9.60;7.78;;;;;;;24.17;56.21;100915.91;5035017;28;20068;-89
2021/07/23 01:26:54;;;;;;;11.15;8.50;;;;;;;24.15;55.88;100916.06;5035016;28;20060;-89
2021/07/23 01:29:21;;;;;;;8.50;7.57;;;;;;;24.20;56.04;100912.00;5035184;28;20032;-89
2021/07/23 01:31:46;;;;;;;12.32;8.00;;;;;;;24.17;56.14;100907.00;5034454;28;20561;-89
2021/07/23 01:34:11;;;;;;;8.90;7.15;;;;;;;24.20;56.05;100902.09;5034712;28;20030;-89
2021/07/23 01:36:37;;;;;;;12.98;7.85;;;;;;;24.15;55.83;100910.72;5034614;28;20033;-90
2021/07/23 01:39:02;;;;;;;10.27;7.38;;;;;;;24.14;55.97;100913.56;5034929;28;20476;-89
2021/07/23 01:41:28;;;;;;;13.93;8.45;;;;;;;24.12;55.47;100900.31;5034824;28;20490;-89
2021/07/23 01:43:53;;;;;;;9.85;7.43;;;;;;;24.07;55.95;100892.00;5034702;28;20376;-89
2021/07/23 01:46:19;;;;;;;12.10;8.07;;;;;;;24.06;56.23;100901.06;5034667;28;20018;-89
2021/07/23 01:48:44;;;;;;;10.43;7.60;;;;;;;24.00;55.98;100904.47;5034419;28;20014;-89
2021/07/23 01:51:09;;;;;;;10.70;7.40;;;;;;;24.03;56.10;100898.75;5049890;28;20033;-89
2021/07/23 01:53:35;;;;;;;9.70;7.40;;;;;;;24.01;56.04;100903.44;5034441;28;20032;-90
2021/07/23 01:56:00;;;;;;;9.10;7.05;;;;;;;23.97;56.01;100901.28;5034377;28;20022;-89
2021/07/23 01:58:27;;;;;;;10.32;6.93;;;;;;;23.98;56.54;100901.13;5034383;28;20032;-90
2021/07/23 02:00:57;;;;;;;9.35;7.20;;;;;;;23.60;56.90;100894.81;5034156;28;20028;-90
2021/07/23 02:03:22;;;;;;;10.70;6.60;;;;;;;23.63;56.04;100895.31;5033443;28;20396;-89
2021/07/23 02:05:48;;;;;;;9.00;6.63;;;;;;;23.70;56.74;100890.91;5034244;28;20029;-89
2021/07/23 02:08:13;;;;;;;8.80;7.13;;;;;;;23.67;56.62;100891.25;5033924;28;20578;-90
2021/07/23 02:10:38;;;;;;;9.60;6.93;;;;;;;23.65;56.35;100897.81;5034097;28;20037;-89
2021/07/23 02:13:04;;;;;;;11.85;7.47;;;;;;;23.70;57.18;100901.63;5034049;28;20025;-89
2021/07/23 02:15:30;;;;;;;8.80;7.65;;;;;;;23.72;57.11;100904.97;5033822;28;20033;-89
2021/07/23 02:17:55;;;;;;;12.07;7.32;;;;;;;23.72;57.21;100893.41;5034119;28;20021;-89
2021/07/23 02:20:21;;;;;;;12.15;8.10;;;;;;;23.69;57.51;100899.13;5034165;28;20025;-89
2021/07/23 02:22:46;;;;;;;11.43;7.40;;;;;;;23.70;57.19;100901.63;5034008;28;20017;-89
2021/07/23 02:25:11;;;;;;;10.57;8.23;;;;;;;23.72;57.40;100898.78;5034016;28;20061;-89
2021/07/23 02:27:37;;;;;;;10.55;7.88;;;;;;;23.69;57.14;100889.22;5033958;28;20076;-89
2021/07/23 02:30:03;;;;;;;18.55;8.23;;;;;;;23.71;57.12;100894.41;5033885;28;20057;-89
2021/07/23 02:32:28;;;;;;;12.50;7.95;;;;;;;23.64;56.72;100888.94;5033019;28;20099;-89
2021/07/23 02:34:54;;;;;;;11.90;8.02;;;;;;;23.70;57.29;100888.22;5033966;28;20026;-89
2021/07/23 02:37:19;;;;;;;9.77;7.60;;;;;;;23.70;57.14;100890.91;5033696;28;20095;-89
2021/07/23 02:39:44;;;;;;;9.82;8.00;;;;;;;23.75;56.88;100882.31;5033846;28;20095;-89
2021/07/23 02:42:10;;;;;;;10.52;7.97;;;;;;;23.75;57.05;100882.31;5033652;28;20033;-89
2021/07/23 02:44:35;;;;;;;9.23;7.57;;;;;;;23.76;56.60;100879.47;5033591;28;20075;-89
2021/07/23 02:47:00;;;;;;;10.40;7.32;;;;;;;23.78;57.02;100883.88;5033174;28;20030;-89
2021/07/23 02:49:26;;;;;;;13.13;7.20;;;;;;;23.66;57.05;100873.53;5033560;28;20036;-88
2021/07/23 02:51:51;;;;;;;8.48;7.00;;;;;;;23.70;56.56;100880.19;5033616;28;20021;-89
2021/07/23 02:54:16;;;;;;;9.50;7.45;;;;;;;23.69;56.78;100875.81;5033298;28;20450;-89
2021/07/23 02:56:42;;;;;;;9.70;7.22;;;;;;;23.58;56.14;100870.91;5033309;28;20061;-89
2021/07/23 02:59:07;;;;;;;10.98;7.07;;;;;;;23.60;56.13;100876.06;5033244;28;20476;-89
2021/07/23 03:01:33;;;;;;;8.55;6.93;;;;;;;23.56;55.83;100870.25;5033039;28;20025;-89
2021/07/23 03:03:58;;;;;;;9.18;7.07;;;;;;;23.54;56.31;100872.28;5033158;28;20680;-90
2021/07/23 03:06:24;;;;;;;9.95;6.97;;;;;;;23.46;55.89;100866.94;5033475;28;20026;-89
2021/07/23 03:08:49;;;;;;;10.88;7.80;;;;;;;23.46;55.73;100864.25;5033213;28;20356;-89
2021/07/23 03:11:15;;;;;;;8.75;6.68;;;;;;;23.44;55.86;100858.25;5033066;28;20025;-89
2021/07/23 03:13:41;;;;;;;12.95;7.30;;;;;;;23.45;55.86;100862.59;5032940;28;20355;-89
2021/07/23 03:16:14;;;;;;;8.38;6.53;;;;;;;23.34;56.29;100853.97;5032623;28;20065;-89
2021/07/23 03:18:40;;;;;;;9.10;7.38;;;;;;;23.33;56.11;100854.97;5033010;28;20464;-89
2021/07/23 03:21:05;;;;;;;10.82;7.38;;;;;;;23.27;55.97;100847.63;5033008;28;20029;-90
2021/07/23 03:23:30;;;;;;;9.98;7.57;;;;;;;23.26;55.65;100854.03;5032854;28;20017;-89
2021/07/23 03:25:56;;;;;;;11.65;7.30;;;;;;;23.34;56.25;100847.75;5032970;28;20025;-89
2021/07/23 03:28:21;;;;;;;10.23;7.03;;;;;;;23.37;55.08;100844.72;5032895;28;20534;-89
2021/07/23 03:30:46;;;;;;;11.57;8.50;;;;;;;23.21;55.55;100842.16;5031134;28;20495;-90
2021/07/23 03:33:12;;;;;;;11.30;8.18;;;;;;;23.21;56.37;100826.91;5032374;28;20112;-89
2021/07/23 03:35:37;;;;;;;11.48;7.30;;;;;;;23.24;56.46;100837.25;5032725;28;20060;-90
2021/07/23 03:38:02;;;;;;;10.00;7.80;;;;;;;23.28;56.47;100837.75;5032666;28;20136;-89
2021/07/23 03:40:28;;;;;;;10.15;6.97;;;;;;;23.19;56.50;100831.63;5032729;28;20147;-89
2021/07/23 03:42:53;;;;;;;8.77;6.43;;;;;;;23.01;56.71;100825.69;5032496;28;20030;-89
2021/07/23 03:45:18;;;;;;;11.18;6.95;;;;;;;23.04;57.13;100831.53;5032201;28;20114;-89
2021/07/23 03:47:44;;;;;;;9.68;6.65;;;;;;;23.00;57.15;100821.31;5032442;28;20057;-89
2021/07/23 03:50:09;;;;;;;12.82;7.53;;;;;;;22.97;57.14;100831.38;5032435;28;20025;-89
2021/07/23 03:52:34;;;;;;;10.10;7.03;;;;;;;22.98;57.14;100826.84;5032238;28;20069;-88
2021/07/23 03:55:00;;;;;;;7.55;6.53;;;;;;;23.01;57.86;100829.19;5032261;28;20040;-88
2021/07/23 03:57:25;;;;;;;9.82;7.25;;;;;;;22.97;56.73;100825.19;5032287;28;20544;-88
2021/07/23 03:59:50;;;;;;;8.57;6.90;;;;;;;22.91;56.22;100820.53;5031954;28;20132;-88
2021/07/23 04:02:16;;;;;;;10.70;7.70;;;;;;;22.88;56.68;100815.50;5031756;28;20565;-88
2021/07/23 04:04:41;;;;;;;9.93;7.03;;;;;;;22.89;56.75;100811.84;5032072;28;20120;-88
2021/07/23 04:07:06;;;;;;;7.85;6.80;;;;;;;22.91;57.09;100812.50;5032162;28;20068;-88
2021/07/23 04:09:32;;;;;;;10.45;7.35;;;;;;;22.79;57.90;100809.38;5029799;28;20120;-88
2021/07/23 04:11:57;;;;;;;11.77;7.88;;;;;;;22.73;57.49;100799.38;5028312;28;20439;-89
2021/07/23 04:14:23;;;;;;;10.85;7.53;;;;;;;22.67;57.61;100800.91;5029713;28;20476;-88
2021/07/23 04:16:49;;;;;;;15.80;9.07;;;;;;;22.67;58.34;100802.72;5026397;28;20030;-88
2021/07/23 04:19:15;;;;;;;11.32;7.97;;;;;;;22.58;58.69;100794.72;5031133;28;20076;-88
2021/07/23 04:21:41;;;;;;;11.82;8.13;;;;;;;22.69;58.58;100793.53;5030466;28;20033;-90
2021/07/23 04:24:06;;;;;;;17.13;7.45;;;;;;;22.71;58.69;100796.00;5022404;28;20053;-89
2021/07/23 04:26:33;;;;;;;10.82;8.10;;;;;;;22.82;58.68;100792.13;5025811;28;20052;-89
2021/07/23 04:28:59;;;;;;;17.58;8.00;;;;;;;22.76;58.36;100796.31;5031898;28;20522;-89
2021/07/23 04:31:24;;;;;;;13.88;8.20;;;;;;;22.88;58.95;100784.22;5030936;28;20033;-89
2021/07/23 04:33:50;;;;;;;9.30;7.82;;;;;;;23.00;58.42;100797.22;5031583;28;20041;-89
2021/07/23 04:36:15;;;;;;;11.65;8.48;;;;;;;22.84;58.64;100785.56;5031215;28;20112;-89
2021/07/23 04:38:41;;;;;;;13.05;8.57;;;;;;;22.96;58.08;100786.84;5031755;28;20034;-88
2021/07/23 04:41:06;;;;;;;13.25;8.52;;;;;;;22.99;58.57;100784.84;5031264;28;20025;-89
2021/07/23 04:43:32;;;;;;;7.63;6.80;;;;;;;23.05;57.79;100773.47;5031252;28;20022;-89
2021/07/23 04:45:58;;;;;;;10.65;7.55;;;;;;;23.06;58.39;100777.78;5028675;28;20026;-89
2021/07/23 04:48:23;;;;;;;8.65;7.50;;;;;;;23.06;58.39;100775.13;5031495;28;20032;-90
2021/07/23 04:50:50;;;;;;;12.00;8.23;;;;;;;23.09;58.77;100788.16;5031025;28;20454;-89
2021/07/23 04:53:16;;;;;;;12.80;8.25;;;;;;;23.08;58.68;100778.44;5031514;28;20030;-89
2021/07/23 04:55:41;;;;;;;9.63;6.95;;;;;;;23.09;58.65;100777.44;5031340;28;20025;-89
2021/07/23 04:58:07;;;;;;;10.85;7.93;;;;;;;23.10;58.80;100771.06;5031503;28;20025;-89
2021/07/23 05:00:32;;;;;;;10.93;8.48;;;;;;;23.12;58.50;100777.06;5029567;28;20024;-89
2021/07/23 05:02:57;;;;;;;12.23;8.18;;;;;;;23.11;58.48;100778.94;5031392;28;20060;-89
2021/07/23 05:05:23;;;;;;;10.98;8.40;;;;;;;23.15;58.39;100774.06;5031241;28;20112;-90
2021/07/23 05:07:49;;;;;;;12.07;8.00;;;;;;;23.21;58.40;100784.06;5031378;28;20033;-89
2021/07/23 05:10:16;;;;;;;11.13;7.78;;;;;;;23.19;58.56;100779.91;5031295;28;20030;-88
2021/07/23 05:12:42;;;;;;;11.73;8.15;;;;;;;23.31;58.58;100781.16;5028043;28;20021;-89
2021/07/23 05:15:09;;;;;;;9.30;7.47;;;;;;;23.35;58.33;100777.91;5019545;28;20034;-89
2021/07/23 05:17:35;;;;;;;10.77;8.10;;;;;;;23.47;58.30;100772.97;5010843;28;20097;-89
2021/07/23 05:20:05;;;;;;;10.27;7.97;;;;;;;23.60;57.63;100772.38;5012250;28;20121;-90
2021/07/23 05:22:32;;;;;;;12.15;7.95;;;;;;;23.65;58.06;100769.16;5029241;28;20426;-89
2021/07/23 05:24:57;;;;;;;11.27;8.23;;;;;;;23.85;57.20;100769.50;5029190;28;20022;-90
2021/07/23 05:27:23;;;;;;;12.25;8.95;;;;;;;23.87;56.81;100762.09;5013427;28;20077;-89
2021/07/23 05:29:48;;;;;;;15.60;8.68;;;;;;;24.06;56.08;100764.25;5010622;28;20104;-89
2021/07/23 05:32:14;;;;;;;13.48;8.55;;;;;;;24.12;55.84;100760.81;5011882;28;20494;-90
2021/07/23 05:34:39;;;;;;;15.13;8.88;;;;;;;24.18;56.19;100769.16;5009490;28;20424;-88
2021/07/23 05:37:04;;;;;;;15.93;9.93;;;;;;;24.22;55.96;100762.41;5012429;28;20472;-89
2021/07/23 05:39:30;;;;;;;10.88;8.68;;;;;;;24.40;55.42;100757.47;5015928;28;20105;-90
2021/07/23 05:41:55;;;;;;;10.38;7.97;;;;;;;24.34;55.52;100759.06;5033166;28;20025;-89
2021/07/23 05:44:20;;;;;;;12.48;8.18;;;;;;;24.31;55.57;100764.81;5033020;28;20051;-89
2021/07/23 05:46:46;;;;;;;13.85;9.25;;;;;;;24.00;56.55;100767.66;5022548;28;20018;-90
2021/07/23 05:49:11;;;;;;;12.07;8.55;;;;;;;24.25;56.30;100757.50;5014090;28;20516;-89
2021/07/23 05:51:36;;;;;;;11.25;8.32;;;;;;;24.53;55.67;100746.97;5013930;28;20388;-90
2021/07/23 05:54:02;;;;;;;9.25;7.45;;;;;;;24.58;55.06;100753.63;5014232;28;20472;-89
2021/07/23 05:56:27;;;;;;;15.60;8.30;;;;;;;24.77;54.97;100752.19;5017356;28;20495;-89
2021/07/23 05:58:53;;;;;;;13.68;8.82;;;;;;;24.74;54.89;100748.00;5032795;28;20025;-89
2021/07/23 06:01:18;;;;;;;11.80;8.32;;;;;;;24.62;54.88;100753.03;5030854;28;20030;-91
2021/07/23 06:03:43;;;;;;;11.80;8.65;;;;;;;24.20;56.06;100751.03;5034371;28;20403;-90
2021/07/23 06:06:09;;;;;;;18.35;9.73;;;;;;;24.43;55.77;100751.75;5034134;28;20108;-90
2021/07/23 06:08:34;;;;;;;12.82;8.73;;;;;;;24.62;55.52;100750.34;5034164;28;20472;-90
2021/07/23 06:11:04;;;;;;;15.35;8.52;;;;;;;24.77;54.98;100755.72;5032991;28;20029;-90
2021/07/23 06:13:30;;;;;;;13.02;9.10;;;;;;;24.78;55.04;100754.66;5033709;28;20021;-90
2021/07/23 06:15:55;;;;;;;16.83;9.25;;;;;;;24.92;54.71;100761.88;5033917;28;20036;-90
2021/07/23 06:18:20;;;;;;;12.80;10.18;;;;;;;24.64;55.51;100752.84;5033990;28;20072;-90
2021/07/23 06:20:46;;;;;;;15.75;10.90;;;;;;;24.90;54.45;100760.38;5034243;28;20021;-91
2021/07/23 06:23:11;;;;;;;15.55;11.90;;;;;;;24.97;54.83;100761.31;5032773;28;20029;-91
2021/07/23 06:25:36;;;;;;;13.75;11.20;;;;;;;25.00;54.36;100746.66;5033399;28;20029;-89
2021/07/23 06:28:04;;;;;;;13.65;10.70;;;;;;;25.02;54.33;100755.34;5037563;28;20022;-90
2021/07/23 06:30:29;;;;;;;14.60;10.23;;;;;;;25.08;54.27;100760.81;5036618;28;20029;-90
2021/07/23 06:32:55;;;;;;;15.50;11.15;;;;;;;25.14;54.24;100762.72;5018889;28;20030;-88
2021/07/23 06:35:20;;;;;;;14.02;10.63;;;;;;;25.06;54.45;100756.63;5016588;28;20029;-91
2021/07/23 06:37:45;;;;;;;13.77;9.98;;;;;;;25.16;54.28;100762.53;5033120;28;20029;-91
2021/07/23 06:40:11;;;;;;;11.93;9.98;;;;;;;25.20;54.10;100763.81;5033715;28;20021;-91
2021/07/23 06:42:36;;;;;;;12.63;9.85;;;;;;;25.52;53.38;100762.47;5024180;28;20029;-92
2021/07/23 06:45:03;;;;;;;14.23;9.50;;;;;;;25.57;53.32;100759.19;5032600;28;20071;-93
2021/07/23 06:47:28;;;;;;;13.07;8.68;;;;;;;25.81;52.80;100755.28;5032413;28;20104;-92
2021/07/23 06:49:54;;;;;;;12.27;9.68;;;;;;;25.92;51.99;100761.97;5032325;28;20067;-92
2021/07/23 06:52:19;;;;;;;17.67;9.07;;;;;;;26.21;51.20;100773.56;5020876;28;20029;-92
2021/07/23 06:54:45;;;;;;;12.75;8.65;;;;;;;26.64;50.29;100766.13;5018303;28;20021;-93
2021/07/23 06:57:10;;;;;;;16.10;9.07;;;;;;;26.86;49.70;100761.44;5031102;28;20025;-91
2021/07/23 06:59:36;;;;;;;10.98;8.70;;;;;;;27.23;48.41;100761.94;5032148;28;20443;-93
2021/07/23 07:02:02;;;;;;;13.23;8.73;;;;;;;27.78;47.21;100764.44;5024037;28;20108;-93
2021/07/23 07:04:28;;;;;;;12.80;7.82;;;;;;;28.46;46.65;100750.63;5014382;28;20029;-93
2021/07/23 07:06:57;;;;;;;12.52;8.95;;;;;;;29.21;44.46;100755.47;5027870;28;20021;-92
2021/07/23 07:09:23;;;;;;;10.77;7.70;;;;;;;29.99;42.30;100756.88;5032450;28;20100;-94
2021/07/23 07:11:49;;;;;;;9.95;7.80;;;;;;;30.31;41.95;100764.88;5022684;28;20067;-95
2021/07/23 07:14:14;;;;;;;10.13;7.93;;;;;;;30.53;41.37;100759.00;5016396;28;20026;-92
2021/07/23 07:16:39;;;;;;;14.63;8.80;;;;;;;30.92;40.00;100767.69;5028136;28;20048;-93
2021/07/23 07:19:05;;;;;;;10.32;8.25;;;;;;;31.01;39.65;100774.44;5032757;28;20033;-93
2021/07/23 07:21:30;;;;;;;9.45;7.72;;;;;;;31.58;39.00;100766.69;5030477;28;20033;-93
2021/07/23 07:23:55;;;;;;;16.77;8.18;;;;;;;31.71;38.27;100770.22;5031530;28;20033;-92
2021/07/23 07:26:22;;;;;;;15.35;8.90;;;;;;;31.78;38.31;100771.75;5030438;28;20026;-92
2021/07/23 07:28:47;;;;;;;11.43;8.73;;;;;;;31.61;38.71;100763.50;5016279;28;20349;-92
2021/07/23 07:31:15;;;;;;;13.18;7.47;;;;;;;31.75;39.30;100764.09;5031807;28;20101;-92
2021/07/23 07:33:40;;;;;;;9.88;8.00;;;;;;;31.93;37.91;100760.44;5031580;28;20442;-93
2021/07/23 07:36:06;;;;;;;10.10;7.25;;;;;;;32.20;38.21;100765.38;5032590;28;20033;-92
2021/07/23 07:38:31;;;;;;;12.80;8.25;;;;;;;32.17;37.59;100754.97;5032808;28;20262;-91
2021/07/23 07:40:56;;;;;;;10.55;8.18;;;;;;;31.77;38.10;100766.56;5032409;28;20379;-92
2021/07/23 07:43:22;;;;;;;16.50;8.13;;;;;;;32.09;37.79;100755.34;5031758;28;20037;-91
2021/07/23 07:45:47;;;;;;;9.95;8.10;;;;;;;31.64;38.07;100764.94;5032238;28;20025;-92
2021/07/23 07:48:12;;;;;;;11.25;8.00;;;;;;;32.59;36.95;100757.50;5032600;28;20017;-92
2021/07/23 07:50:38;;;;;;;9.20;6.95;;;;;;;32.13;37.44;100753.81;5032593;28;20388;-91
2021/07/23 07:53:09;;;;;;;9.38;8.20;;;;;;;32.12;37.55;100757.59;5031004;28;20503;-92
2021/07/23 07:55:34;;;;;;;11.25;7.05;;;;;;;33.01;37.73;100740.88;5032000;28;20129;-92
2021/07/23 07:57:59;;;;;;;12.18;7.38;;;;;;;33.44;36.39;100742.16;5025271;28;20500;-92
2021/07/23 08:00:25;;;;;;;12.48;8.02;;;;;;;33.72;35.22;100729.53;5012404;28;20057;-93
2021/07/23 08:02:50;;;;;;;8.70;6.25;;;;;;;34.52;34.45;100730.00;5012381;28;20029;-92
2021/07/23 08:05:16;;;;;;;11.45;7.72;;;;;;;34.45;34.09;100723.94;5012408;28;20036;-93
2021/07/23 08:07:41;;;;;;;10.90;7.25;;;;;;;34.80;33.65;100720.81;5031093;28;20108;-93
2021/07/23 08:10:10;;;;;;;9.30;7.07;;;;;;;34.98;33.25;100721.50;5031980;28;20503;-93
2021/07/23 08:12:35;;;;;;;11.68;7.53;;;;;;;35.52;32.84;100727.66;5031326;28;20036;-92
2021/07/23 08:15:01;;;;;;;9.48;6.47;;;;;;;35.24;32.08;100722.56;5032263;28;20037;-93
2021/07/23 08:17:28;;;;;;;10.45;7.82;;;;;;;35.66;32.80;100713.56;5017161;28;20038;-92
2021/07/23 08:19:56;;;;;;;9.75;6.85;;;;;;;35.92;32.01;100712.66;5012783;28;20037;-94
2021/07/23 08:22:21;;;;;;;8.35;6.90;;;;;;;36.18;31.70;100701.84;5013481;28;20029;-95
2021/07/23 08:24:47;;;;;;;14.38;7.68;;;;;;;35.78;32.69;100706.00;5012127;28;20118;-94
2021/07/23 08:27:14;;;;;;;10.98;7.20;;;;;;;35.94;31.80;100702.28;5013799;28;20034;-93
2021/07/23 08:29:39;;;;;;;10.63;7.30;;;;;;;36.17;31.62;100693.91;5012165;28;20369;-92
2021/07/23 08:32:08;;;;;;;14.38;7.50;;;;;;;36.60;31.01;100703.59;5015248;28;20095;-93
2021/07/23 08:34:34;;;;;;;9.05;7.10;;;;;;;36.77;30.53;100694.34;5012103;28;20092;-92
2021/07/23 08:36:59;;;;;;;9.77;7.18;;;;;;;36.44;30.76;100696.47;5020361;28;20115;-94
2021/07/23 08:39:24;;;;;;;11.18;6.88;;;;;;;36.59;30.86;100685.53;5031494;28;20395;-93
2021/07/23 08:41:50;;;;;;;9.30;6.43;;;;;;;36.55;30.67;100692.63;5030067;28;20467;-91
2021/07/23 08:44:16;;;;;;;8.95;6.90;;;;;;;36.99;29.97;100683.94;5029822;28;20040;-91
2021/07/23 08:46:42;;;;;;;9.90;7.53;;;;;;;36.65;29.93;100684.50;5030449;28;20021;-93
2021/07/23 08:49:07;;;;;;;12.07;6.22;;;;;;;36.68;30.75;100678.47;5031555;28;20030;-93
2021/07/23 08:51:33;;;;;;;8.45;6.53;;;;;;;37.42;29.14;100668.03;5028178;28;20029;-93
2021/07/23 08:53:58;;;;;;;8.30;6.55;;;;;;;37.31;29.24;100667.25;5011673;28;20030;-93
2021/07/23 08:56:23;;;;;;;8.98;6.30;;;;;;;37.55;29.61;100657.59;5013032;28;20030;-94
2021/07/23 08:58:49;;;;;;;7.57;6.22;;;;;;;37.97;28.21;100653.63;5023794;28;20026;-92
2021/07/23 09:01:14;;;;;;;10.50;5.85;;;;;;;38.13;28.13;100652.47;5023438;28;20487;-94
2021/07/23 09:03:39;;;;;;;9.48;5.85;;;;;;;38.33;28.07;100656.19;5014500;28;20621;-93
2021/07/23 09:06:14;;;;;;;9.63;6.13;;;;;;;38.02;28.27;100648.94;5012774;28;20502;-94
2021/07/23 09:08:47;;;;;;;8.10;5.43;;;;;;;38.75;27.87;100646.59;5030374;28;20029;-94
2021/07/23 09:11:13;;;;;;;8.45;6.05;;;;;;;38.81;27.35;100650.94;5019757;28;20030;-95
2021/07/23 09:13:38;;;;;;;9.75;6.28;;;;;;;38.45;27.81;100654.75;5022816;28;20025;-94
2021/07/23 09:16:22;;;;;;;11.70;6.95;;;;;;;38.04;28.23;100660.44;5028420;28;20403;-92
2021/07/23 09:19:03;;;;;;;18.10;7.28;;;;;;;37.76;28.95;100658.38;5035304;28;20350;-89
2021/07/23 09:21:28;;;;;;;;;;;;;;;37.65;28.66;100652.13;5048567;28;20048;-91
2021/07/23 09:23:55;;;;;;;11.93;6.25;;;;;;;37.36;29.15;100644.50;5033951;28;19964;-92
2021/07/23 09:26:20;;;;;;;12.27;5.80;;;;;;;38.01;28.36;100639.06;5021883;28;20022;-92
2021/07/23 09:28:47;;;;;;;8.45;6.55;;;;;;;38.85;28.07;100641.81;5018121;28;20423;-90
2021/07/23 09:31:21;;;;;;;10.50;6.15;;;;;;;39.33;27.48;100632.03;5014844;28;20026;-90
2021/07/23 09:33:46;;;;;;;5.40;4.78;;;;;;;39.67;27.30;100629.19;5016279;28;20064;-90
2021/07/23 09:36:12;;;;;;;10.10;6.00;;;;;;;39.82;26.84;100622.69;5022722;28;20033;-91
2021/07/23 09:38:42;;;;;;;7.72;6.20;;;;;;;39.47;26.85;100617.31;5031315;28;20029;-91
2021/07/23 09:41:12;;;;;;;9.73;6.03;;;;;;;39.89;26.62;100608.59;5033509;28;20499;-91
2021/07/23 09:43:42;;;;;;;;;;;;;;;40.08;26.23;100611.34;5034477;28;20045;-90
2021/07/23 09:46:16;;;;;;;11.00;6.00;;;;;;;39.86;27.01;100593.50;5029283;28;20008;-90
2021/07/23 09:48:42;;;;;;;11.13;5.10;;;;;;;39.80;27.38;100590.00;5019426;28;20026;-96
2021/07/23 09:51:09;;;;;;;7.82;5.75;;;;;;;40.19;26.59;100580.66;5084257;23;20052;-96
2021/07/23 09:53:36;;;;;;;7.32;6.03;;;;;;;39.24;26.80;100571.44;5024055;28;20541;-95
2021/07/23 09:56:10;;;;;;;7.57;5.88;;;;;;;39.09;26.93;100586.16;5035553;28;20025;-95
2021/07/23 09:58:41;;;;;;;7.85;5.70;;;;;;;39.00;26.90;100568.69;5018911;28;20029;-89
2021/07/23 10:01:10;;;;;;;8.68;5.97;;;;;;;37.87;27.45;100570.34;5037487;28;20033;-88
2021/07/23 10:03:42;;;;;;;16.25;6.05;;;;;;;38.20;27.76;100558.94;5053153;28;20067;-87
2021/07/23 10:06:10;;;;;;;8.35;6.07;;;;;;;37.35;29.09;100540.75;5050575;28;20040;-87
2021/07/23 10:08:39;;;;;;;6.57;5.22;;;;;;;37.85;28.31;100545.16;5040141;28;20497;-85
2021/07/23 10:11:07;;;;;;;8.77;5.45;;;;;;;37.68;28.60;100531.84;5043536;28;20033;-86
2021/07/23 10:13:37;;;;;;;9.07;4.75;;;;;;;38.06;27.77;100520.38;5034195;28;20475;-87
2021/07/23 10:16:05;;;;;;;13.35;5.40;;;;;;;37.78;27.70;100517.25;5034152;28;20037;-88
2021/07/23 10:18:31;;;;;;;10.30;6.00;;;;;;;37.28;28.65;100510.91;5043726;28;20032;-88
2021/07/23 10:20:56;;;;;;;8.88;5.47;;;;;;;37.10;29.11;100518.59;5050889;28;20033;-88
2021/07/23 10:23:23;;;;;;;9.90;4.85;;;;;;;37.06;29.16;100517.53;5052019;28;20183;-87
2021/07/23 10:25:50;;;;;;;9.65;4.93;;;;;;;37.44;29.21;100517.97;5039038;28;20036;-88
2021/07/23 10:28:41;;;;;;;8.30;4.78;;;;;;;37.09;28.76;100514.25;5045894;28;20111;-84
2021/07/23 10:31:32;;;;;;;6.93;4.97;;;;;;;36.45;29.51;100515.69;5035793;28;20079;-85
2021/07/23 10:33:57;;;;;;;10.88;6.18;;;;;;;35.81;30.55;100511.53;5016918;28;20037;-86
2021/07/23 10:36:31;;;;;;;8.18;4.93;;;;;;;36.43;30.51;100498.75;5033924;28;20472;-85
2021/07/23 10:39:06;;;;;;;7.00;5.13;;;;;;;36.19;30.67;100495.75;5045775;28;20041;-83
2021/07/23 10:41:35;;;;;;;7.75;5.00;;;;;;;35.14;32.18;100503.03;5033723;28;20045;-84
2021/07/23 10:44:01;;;;;;;9.95;5.03;;;;;;;34.94;31.38;100509.22;5033186;28;20029;-86
2021/07/23 10:46:45;;;;;;;9.13;4.97;;;;;;;35.35;32.49;100511.38;5041028;28;20034;-86
2021/07/23 10:49:27;;;;;;;8.55;4.68;;;;;;;34.82;32.05;100505.06;5033244;28;20025;-86
2021/07/23 10:51:59;;;;;;;8.23;5.00;;;;;;;34.01;33.62;100509.56;5032474;28;20025;-86
2021/07/23 10:54:32;;;;;;;12.73;5.75;;;;;;;34.53;32.64;100498.00;5033192;28;20033;-86
2021/07/23 10:57:03;;;;;;;10.20;4.68;;;;;;;33.71;33.82;100502.72;5040868;28;20140;-87
2021/07/23 10:59:48;;;;;;;7.93;4.70;;;;;;;33.99;33.49;100511.72;5045856;28;20105;-86
2021/07/23 11:02:14;;;;;;;4.55;3.92;;;;;;;34.45;32.78;100511.31;5033166;28;20087;-86
2021/07/23 11:04:40;;;;;;;9.35;4.65;;;;;;;34.43;32.17;100508.03;5031403;28;20034;-87
2021/07/23 11:07:07;;;;;;;9.05;4.60;;;;;;;34.15;32.62;100501.81;5033142;28;20132;-86
2021/07/23 11:09:34;;;;;;;10.27;5.00;;;;;;;33.80;33.27;100500.34;5033044;28;20033;-87
2021/07/23 11:12:19;;;;;;;12.38;5.20;;;;;;;34.76;32.64;100493.31;5033004;28;20495;-83
2021/07/23 11:14:51;;;;;;;8.63;4.80;;;;;;;33.74;34.27;100506.81;5022018;28;20559;-86
2021/07/23 11:17:16;;;;;;;12.30;4.80;;;;;;;33.05;35.27;100505.38;5032727;28;20151;-84